Time;durP1;ratioP1;P1;durP2;ratioP2;P2;SDS_P1;SDS_P2;PMS_P1;PMS_P2;Temp;Humidity;BMP_temperature;BMP_pressure;BME280_temperature;BME280_humidity;BME280_pressure;Samples;Min_cycle;Max_cycle;Signal;HPM_P1;HPM_P2
2021/05/20 00:00:24;;;;;;;3.92;1.05;;;10.20;99.90;;;;;;4954623;29;20835;-53
2021/05/20 00:02:51;;;;;;;4.40;1.30;;;10.20;99.90;;;;;;4952301;29;20390;-53
2021/05/20 00:05:17;;;;;;;4.03;1.48;;;10.20;99.90;;;;;;4954137;29;20753;-53
2021/05/20 00:07:44;;;;;;;5.03;1.95;;;10.20;99.90;;;;;;4953572;29;20412;-53
2021/05/20 00:10:10;;;;;;;4.20;1.30;;;10.00;99.90;;;;;;4954420;29;20488;-53
2021/05/20 00:12:36;;;;;;;4.60;1.30;;;9.90;99.90;;;;;;4936197;29;20422;-53
2021/05/20 00:15:05;;;;;;;3.97;1.00;;;9.80;99.90;;;;;;4954289;29;20389;-53
2021/05/20 00:17:30;;;;;;;5.38;1.48;;;9.80;99.90;;;;;;4952546;29;20866;-64
2021/05/20 00:19:56;;;;;;;4.10;1.42;;;9.70;99.90;;;;;;4953877;29;20400;-53
2021/05/20 00:22:22;;;;;;;5.20;1.17;;;9.60;99.90;;;;;;4937023;29;20441;-53
2021/05/20 00:24:47;;;;;;;4.63;1.20;;;9.70;99.90;;;;;;4953330;29;20901;-53
2021/05/20 00:27:13;;;;;;;4.77;1.50;;;9.70;99.90;;;;;;4954025;29;20877;-53
2021/05/20 00:29:39;;;;;;;4.10;1.40;;;9.60;99.90;;;;;;4953137;29;20873;-54
2021/05/20 00:32:05;;;;;;;4.30;1.47;;;9.50;99.90;;;;;;4953726;29;20419;-53
2021/05/20 00:34:30;;;;;;;4.03;1.30;;;9.50;99.90;;;;;;4953215;29;20928;-62
2021/05/20 00:36:56;;;;;;;4.63;1.30;;;9.50;99.90;;;;;;4953513;29;20472;-53
2021/05/20 00:39:22;;;;;;;4.30;1.50;;;9.60;99.90;;;;;;4953930;29;20386;-53
2021/05/20 00:41:47;;;;;;;4.22;1.40;;;9.60;99.90;;;;;;4952361;28;20480;-53
2021/05/20 00:44:13;;;;;;;4.17;1.30;;;9.70;99.90;;;;;;4953380;29;20388;-53
2021/05/20 00:46:39;;;;;;;3.90;1.30;;;9.70;99.90;;;;;;4953285;29;20390;-53
2021/05/20 00:49:09;;;;;;;4.27;1.10;;;9.60;99.90;;;;;;4953330;29;20382;-53
2021/05/20 00:51:37;;;;;;;3.80;1.45;;;9.70;99.90;;;;;;4952884;29;20420;-53
2021/05/20 00:54:02;;;;;;;4.68;1.30;;;9.70;99.90;;;;;;4953389;29;20401;-53
2021/05/20 00:56:31;;;;;;;4.50;1.70;;;9.60;99.90;;;;;;4953520;29;20407;-62
2021/05/20 00:58:57;;;;;;;3.90;1.40;;;9.60;99.90;;;;;;4935825;29;20492;-53
2021/05/20 01:01:23;;;;;;;4.30;1.30;;;9.60;99.90;;;;;;4953301;29;20489;-53
2021/05/20 01:03:49;;;;;;;4.00;1.20;;;9.60;99.90;;;;;;4952529;29;21064;-53
2021/05/20 01:06:15;;;;;;;4.20;1.30;;;9.40;99.90;;;;;;4953601;29;20401;-52
2021/05/20 01:08:41;;;;;;;4.70;1.30;;;9.40;99.90;;;;;;4952300;29;20923;-55
2021/05/20 01:11:06;;;;;;;4.00;1.40;;;9.40;99.90;;;;;;4952985;29;20501;-52
2021/05/20 01:13:32;;;;;;;4.18;1.50;;;9.30;99.90;;;;;;4952592;29;20881;-64
2021/05/20 01:15:58;;;;;;;4.80;1.70;;;9.20;99.90;;;;;;4953075;29;20719;-53
2021/05/20 01:18:23;;;;;;;5.30;1.60;;;9.20;99.90;;;;;;4952873;29;20393;-52
2021/05/20 01:20:49;;;;;;;5.07;1.50;;;9.20;99.90;;;;;;4952312;29;20386;-52
2021/05/20 01:23:17;;;;;;;5.70;1.58;;;9.10;99.90;;;;;;4953219;29;20396;-52
2021/05/20 01:25:45;;;;;;;5.30;1.80;;;9.10;99.90;;;;;;4952127;29;20401;-53
2021/05/20 01:28:18;;;;;;;5.70;1.60;;;9.10;99.90;;;;;;4952628;29;20493;-53
2021/05/20 01:30:45;;;;;;;3.92;1.23;;;9.00;99.90;;;;;;4951974;29;20417;-61
2021/05/20 01:33:11;;;;;;;5.45;1.80;;;8.90;99.90;;;;;;4952859;29;20398;-52
2021/05/20 01:35:37;;;;;;;6.32;1.50;;;8.90;99.90;;;;;;4952070;29;20386;-52
2021/05/20 01:40:57;;;;;;;4.10;1.60;;;8.80;99.90;;;;;;4952137;29;20397;-54
2021/05/20 01:43:24;;;;;;;4.57;1.70;;;8.70;99.90;;;;;;4952597;29;20390;-54
2021/05/20 01:45:59;;;;;;;3.50;1.30;;;8.70;99.90;;;;;;4951894;29;20503;-54
2021/05/20 01:48:26;;;;;;;5.57;1.60;;;8.80;99.90;;;;;;4952588;29;20394;-57
2021/05/20 01:50:52;;;;;;;4.07;1.30;;;8.70;99.90;;;;;;4951783;29;20432;-54
2021/05/20 01:53:18;;;;;;;4.03;1.23;;;8.70;99.90;;;;;;4951480;28;20397;-53
2021/05/20 01:55:48;;;;;;;4.03;1.60;;;8.70;99.90;;;;;;4951419;29;20390;-54
2021/05/20 01:58:14;;;;;;;4.32;1.40;;;8.70;99.90;;;;;;4952224;29;20487;-54
2021/05/20 02:00:39;;;;;;;5.00;1.40;;;8.60;99.90;;;;;;4951781;29;20775;-54
2021/05/20 02:03:05;;;;;;;4.63;1.33;;;8.60;99.90;;;;;;4952147;29;20493;-54
2021/05/20 02:05:31;;;;;;;3.75;1.30;;;8.50;99.90;;;;;;4952301;29;20411;-66
2021/05/20 02:07:56;;;;;;;4.10;1.37;;;8.50;99.90;;;;;;4951592;29;20429;-54
2021/05/20 02:10:22;;;;;;;4.55;1.30;;;8.50;99.90;;;;;;4952296;29;20841;-54
2021/05/20 02:12:48;;;;;;;4.30;1.30;;;8.50;99.90;;;;;;4951485;29;20398;-54
2021/05/20 02:15:13;;;;;;;4.17;1.60;;;8.50;99.90;;;;;;4952225;29;20390;-53
2021/05/20 02:17:39;;;;;;;3.58;1.25;;;8.50;99.90;;;;;;4950303;29;20875;-53
2021/05/20 02:20:09;;;;;;;3.70;1.40;;;8.40;99.90;;;;;;4950841;29;20484;-59
2021/05/20 02:22:35;;;;;;;4.20;1.60;;;8.50;99.90;;;;;;4951684;29;20430;-64
2021/05/20 02:25:02;;;;;;;5.03;1.30;;;8.50;99.90;;;;;;4951755;29;20996;-53
2021/05/20 02:27:28;;;;;;;3.53;1.38;;;8.50;99.90;;;;;;4951952;29;20397;-53
2021/05/20 02:29:53;;;;;;;3.53;1.30;;;8.50;99.90;;;;;;4951325;29;20406;-53
2021/05/20 02:32:19;;;;;;;4.40;1.77;;;8.60;99.90;;;;;;4951979;29;20436;-52
2021/05/20 02:34:45;;;;;;;3.90;1.40;;;8.70;99.90;;;;;;4949804;29;20413;-53
2021/05/20 02:37:10;;;;;;;3.57;1.40;;;8.70;99.90;;;;;;4950889;29;20397;-52
2021/05/20 02:39:38;;;;;;;8.70;1.50;;;8.80;99.90;;;;;;4951129;29;20877;-59
2021/05/20 02:42:06;;;;;;;4.72;1.50;;;8.80;99.90;;;;;;4951638;29;20398;-53
2021/05/20 02:44:31;;;;;;;4.47;1.38;;;8.80;99.90;;;;;;4951969;29;20599;-52
2021/05/20 02:46:57;;;;;;;4.40;1.30;;;8.80;99.90;;;;;;4951042;29;20521;-52
2021/05/20 02:49:23;;;;;;;3.88;1.30;;;8.90;99.90;;;;;;4951758;29;20405;-53
2021/05/20 02:51:48;;;;;;;4.50;1.50;;;9.00;99.90;;;;;;4951002;29;20421;-52
2021/05/20 02:54:14;;;;;;;5.15;1.52;;;9.10;99.90;;;;;;4951577;29;20490;-52
2021/05/20 02:56:40;;;;;;;4.73;1.50;;;9.10;99.90;;;;;;4951104;29;20736;-57
2021/05/20 02:59:06;;;;;;;5.43;1.83;;;9.10;99.90;;;;;;4951870;29;20428;-53
2021/05/20 03:01:38;;;;;;;3.83;1.48;;;9.20;99.90;;;;;;4951663;29;20409;-52
2021/05/20 03:04:04;;;;;;;3.87;1.70;;;9.30;99.90;;;;;;4952708;28;20393;-52
2021/05/20 03:06:30;;;;;;;3.92;1.83;;;9.40;99.90;;;;;;4955568;29;20397;-52
2021/05/20 03:08:57;;;;;;;5.40;1.73;;;9.40;99.90;;;;;;4954704;29;20933;-52
2021/05/20 03:11:24;;;;;;;4.90;1.70;;;9.40;99.90;;;;;;4955140;29;20922;-53
2021/05/20 03:13:50;;;;;;;5.50;1.70;;;9.40;99.90;;;;;;4954926;29;20504;-52
2021/05/20 03:16:16;;;;;;;4.37;1.87;;;9.30;99.90;;;;;;4955342;29;20877;-52
2021/05/20 03:18:41;;;;;;;4.80;2.00;;;9.30;99.90;;;;;;4954231;29;20394;-52
2021/05/20 03:21:07;;;;;;;4.40;1.80;;;9.30;99.90;;;;;;4955368;29;20386;-52
2021/05/20 03:23:33;;;;;;;3.67;1.50;;;9.20;99.90;;;;;;4955205;29;20386;-61
2021/05/20 03:25:58;;;;;;;4.90;1.63;;;9.20;99.90;;;;;;4937356;29;20401;-52
2021/05/20 03:28:24;;;;;;;4.10;1.88;;;9.20;99.90;;;;;;4955058;29;20425;-52
2021/05/20 03:30:50;;;;;;;5.10;1.70;;;9.20;99.90;;;;;;4954222;29;21335;-52
2021/05/20 03:33:15;;;;;;;4.00;2.00;;;9.20;99.90;;;;;;4954732;29;20925;-56
2021/05/20 03:35:41;;;;;;;4.77;1.90;;;9.20;99.90;;;;;;4954343;29;20390;-53
2021/05/20 03:38:07;;;;;;;4.78;2.20;;;9.30;99.90;;;;;;4954595;29;20882;-52
2021/05/20 03:40:32;;;;;;;4.97;1.77;;;9.30;99.90;;;;;;4954735;29;20397;-52
2021/05/20 03:42:58;;;;;;;4.50;1.87;;;9.20;99.90;;;;;;4954239;29;20378;-52
2021/05/20 03:45:24;;;;;;;6.30;2.00;;;9.20;99.90;;;;;;4955080;29;20384;-52
2021/05/20 03:47:49;;;;;;;4.80;1.90;;;9.20;99.90;;;;;;4953954;29;20390;-52
2021/05/20 03:50:15;;;;;;;4.55;1.90;;;9.10;99.90;;;;;;4954286;29;20385;-52
2021/05/20 03:52:41;;;;;;;6.10;2.30;;;9.20;99.90;;;;;;4953663;29;20385;-52
2021/05/20 03:55:07;;;;;;;4.95;2.10;;;9.10;99.90;;;;;;4954676;29;20444;-52
2021/05/20 03:57:32;;;;;;;5.13;2.10;;;9.10;99.90;;;;;;4937165;29;21289;-52
2021/05/20 03:59:58;;;;;;;4.47;2.00;;;9.10;99.90;;;;;;4953851;29;20511;-52
2021/05/20 04:02:24;;;;;;;4.68;1.92;;;9.10;99.90;;;;;;4954631;29;20493;-52
2021/05/20 04:04:49;;;;;;;4.17;1.80;;;9.00;99.90;;;;;;4953569;29;20745;-52
2021/05/20 04:07:15;;;;;;;4.90;2.20;;;9.00;99.90;;;;;;4954431;29;20393;-54
2021/05/20 04:09:41;;;;;;;4.47;2.20;;;8.80;99.90;;;;;;4953508;29;20394;-52
2021/05/20 04:12:07;;;;;;;5.40;2.20;;;8.70;99.90;;;;;;4954281;29;20417;-53
2021/05/20 04:14:32;;;;;;;4.50;2.10;;;8.70;99.90;;;;;;4954341;29;20403;-52
2021/05/20 04:16:58;;;;;;;4.60;2.00;;;8.80;99.90;;;;;;4961333;28;20392;-52
2021/05/20 04:19:23;;;;;;;4.78;2.20;;;8.80;99.90;;;;;;4973461;28;20388;-52
2021/05/20 04:21:49;;;;;;;5.50;2.10;;;8.90;99.90;;;;;;4972611;28;20910;-52
2021/05/20 04:24:15;;;;;;;7.35;2.20;;;8.90;99.90;;;;;;4973572;28;20488;-52
2021/05/20 04:26:40;;;;;;;5.23;1.90;;;9.00;99.90;;;;;;4971303;28;20400;-53
2021/05/20 04:29:08;;;;;;;3.97;1.80;;;9.30;99.90;;;;;;4972742;28;20416;-52
2021/05/20 04:31:34;;;;;;;6.60;2.00;;;9.30;99.90;;;;;;4973008;28;20427;-53
2021/05/20 04:33:59;;;;;;;4.63;2.00;;;9.40;99.90;;;;;;4972195;28;20587;-53
2021/05/20 04:36:25;;;;;;;4.22;1.80;;;9.50;99.90;;;;;;4973360;28;20432;-53
2021/05/20 04:38:51;;;;;;;4.57;1.97;;;9.80;99.90;;;;;;4971904;28;20388;-53
2021/05/20 04:41:16;;;;;;;4.17;1.77;;;10.00;99.90;;;;;;4967141;28;20405;-53
2021/05/20 04:43:42;;;;;;;5.07;1.80;;;10.10;99.90;;;;;;4972131;28;20388;-53
2021/05/20 04:46:08;;;;;;;4.00;1.70;;;10.10;99.90;;;;;;4973247;28;20488;-53
2021/05/20 04:48:33;;;;;;;5.10;2.20;;;10.20;99.90;;;;;;4972780;28;20779;-53
2021/05/20 04:51:00;;;;;;;7.80;2.00;;;10.20;99.90;;;;;;4971784;28;20423;-56
2021/05/20 04:53:27;;;;;;;5.32;1.80;;;10.20;99.90;;;;;;4973173;28;20781;-53
2021/05/20 04:55:53;;;;;;;5.40;1.90;;;10.50;99.90;;;;;;4965927;28;20638;-53
2021/05/20 04:58:18;;;;;;;4.30;2.00;;;10.80;99.90;;;;;;4953575;29;20489;-56
2021/05/20 05:00:44;;;;;;;5.10;1.90;;;11.50;99.90;;;;;;4952919;29;20409;-53
2021/05/20 05:03:10;;;;;;;5.53;1.85;;;12.20;99.90;;;;;;4954016;28;20482;-53
2021/05/20 05:05:35;;;;;;;3.90;1.70;;;12.50;99.90;;;;;;4954505;28;20394;-64
2021/05/20 05:08:01;;;;;;;4.63;1.97;;;12.30;99.90;;;;;;4953014;29;20393;-53
2021/05/20 05:10:27;;;;;;;5.68;2.35;;;12.10;99.90;;;;;;4953239;29;20771;-53
2021/05/20 05:12:53;;;;;;;4.30;2.20;;;11.90;99.90;;;;;;4952504;29;20403;-53
2021/05/20 05:15:18;;;;;;;4.25;2.10;;;11.60;99.90;;;;;;4952934;29;20386;-53
2021/05/20 05:17:44;;;;;;;4.50;2.30;;;11.40;99.90;;;;;;4951943;29;20386;-53
2021/05/20 05:20:11;;;;;;;4.72;2.50;;;11.20;99.90;;;;;;4953168;29;20505;-53
2021/05/20 05:22:36;;;;;;;5.20;2.50;;;11.10;99.90;;;;;;4952776;29;20393;-64
2021/05/20 05:25:02;;;;;;;5.70;2.90;;;11.10;99.90;;;;;;4952258;29;20719;-52
2021/05/20 05:27:28;;;;;;;7.63;3.10;;;11.20;99.90;;;;;;4935454;29;20885;-53
2021/05/20 05:29:54;;;;;;;5.10;2.97;;;11.30;99.90;;;;;;4952130;29;20497;-53
2021/05/20 05:32:20;;;;;;;5.47;3.05;;;11.20;99.90;;;;;;4952585;29;20436;-53
2021/05/20 05:34:46;;;;;;;6.37;2.50;;;11.30;99.90;;;;;;4952322;29;20485;-53
2021/05/20 05:37:11;;;;;;;6.10;2.50;;;11.60;99.90;;;;;;4952741;29;20824;-53
2021/05/20 05:39:37;;;;;;;4.90;2.70;;;11.70;99.90;;;;;;4952370;29;20403;-65
2021/05/20 05:42:03;;;;;;;4.90;2.50;;;11.70;99.90;;;;;;4952123;29;20382;-53
2021/05/20 05:44:29;;;;;;;5.07;2.30;;;11.50;99.90;;;;;;4952248;29;20486;-53
2021/05/20 05:46:54;;;;;;;4.93;2.40;;;11.80;99.90;;;;;;4951576;29;20477;-53
2021/05/20 05:49:27;;;;;;;5.20;2.55;;;12.00;99.90;;;;;;4951990;29;20485;-53
2021/05/20 05:51:57;;;;;;;5.50;2.60;;;12.20;99.90;;;;;;4953327;28;20424;-63
2021/05/20 05:54:24;;;;;;;5.13;2.70;;;12.20;99.90;;;;;;4937685;29;20418;-55
2021/05/20 05:56:50;;;;;;;4.80;2.80;;;12.10;99.90;;;;;;4954778;28;20399;-53
2021/05/20 05:59:16;;;;;;;7.10;3.00;;;12.10;99.90;;;;;;4971309;28;20396;-53
2021/05/20 06:01:43;;;;;;;6.25;3.00;;;12.20;99.90;;;;;;4962424;28;20420;-53
2021/05/20 06:04:09;;;;;;;5.80;2.60;;;12.10;99.90;;;;;;4951422;29;20386;-53
2021/05/20 06:06:37;;;;;;;4.60;2.40;;;11.90;99.90;;;;;;4951916;29;20375;-53
2021/05/20 06:09:06;;;;;;;5.85;2.30;;;11.80;99.90;;;;;;4950786;29;20379;-53
2021/05/20 06:11:32;;;;;;;5.40;2.63;;;11.70;99.90;;;;;;4953186;28;20416;-53
2021/05/20 06:14:01;;;;;;;6.00;2.70;;;11.60;99.90;;;;;;4969879;28;20934;-53
2021/05/20 06:16:27;;;;;;;7.07;2.65;;;11.50;99.90;;;;;;4971057;28;20384;-53
2021/05/20 06:18:53;;;;;;;4.97;2.53;;;11.80;99.90;;;;;;4969720;28;20415;-54
2021/05/20 06:21:18;;;;;;;5.53;2.60;;;11.80;99.90;;;;;;4970651;28;20860;-54
2021/05/20 06:23:44;;;;;;;6.13;3.07;;;12.10;99.90;;;;;;4969870;28;20856;-53
2021/05/20 06:26:10;;;;;;;5.77;3.10;;;12.00;99.90;;;;;;4970600;28;20398;-53
2021/05/20 06:28:36;;;;;;;5.95;3.28;;;11.90;99.90;;;;;;4934750;29;20424;-55
2021/05/20 06:31:03;;;;;;;4.95;2.97;;;11.80;99.90;;;;;;4950468;29;20464;-53
2021/05/20 06:33:28;;;;;;;5.13;2.72;;;11.90;99.90;;;;;;4934144;29;20394;-53
2021/05/20 06:35:54;;;;;;;4.83;2.20;;;12.00;99.90;;;;;;4950863;29;20473;-53
2021/05/20 06:38:20;;;;;;;5.32;2.20;;;12.00;99.90;;;;;;4951964;28;20386;-53
2021/05/20 06:40:46;;;;;;;5.15;2.10;;;12.40;99.90;;;;;;4956829;29;20437;-54
2021/05/20 06:43:12;;;;;;;5.33;2.30;;;12.50;99.90;;;;;;4957348;28;20440;-54
2021/05/20 06:45:37;;;;;;;5.22;2.22;;;12.60;99.90;;;;;;4957445;29;20444;-64
2021/05/20 06:48:03;;;;;;;6.25;2.30;;;12.30;99.90;;;;;;4956793;29;20382;-53
2021/05/20 06:50:29;;;;;;;5.00;2.40;;;12.20;99.90;;;;;;4961633;28;20394;-53
2021/05/20 06:52:55;;;;;;;5.00;2.40;;;12.00;99.90;;;;;;4960329;28;20512;-53
2021/05/20 06:55:22;;;;;;;4.90;2.50;;;12.00;99.90;;;;;;4955469;28;20838;-53
2021/05/20 07:00:35;;;;;;;4.93;2.80;;;11.80;99.90;;;;;;4961945;28;20387;-52
2021/05/20 07:03:01;;;;;;;5.15;2.95;;;11.40;99.90;;;;;;4939696;29;20396;-52
2021/05/20 07:05:27;;;;;;;5.25;2.67;;;11.30;99.90;;;;;;4956864;28;20389;-53
2021/05/20 07:07:53;;;;;;;6.43;2.60;;;11.30;99.90;;;;;;4956382;28;20390;-53
2021/05/20 07:10:19;;;;;;;5.30;2.60;;;11.60;99.90;;;;;;4956963;28;20381;-53
2021/05/20 07:12:45;;;;;;;5.38;2.60;;;11.50;99.90;;;;;;4959211;28;20404;-53
2021/05/20 07:15:11;;;;;;;4.60;2.20;;;11.80;99.90;;;;;;4964552;28;20905;-54
2021/05/20 07:17:37;;;;;;;4.63;2.10;;;12.00;99.90;;;;;;4967353;28;20395;-53
2021/05/20 07:20:05;;;;;;;5.32;1.92;;;12.30;99.90;;;;;;4962994;28;20505;-53
2021/05/20 07:22:32;;;;;;;5.23;2.10;;;12.70;99.90;;;;;;4957192;28;20389;-54
2021/05/20 07:25:02;;;;;;;4.40;1.92;;;13.10;99.90;;;;;;4956215;28;20386;-54
2021/05/20 07:27:28;;;;;;;4.22;1.85;;;13.00;99.90;;;;;;4975664;28;20417;-53
2021/05/20 07:29:53;;;;;;;5.40;2.00;;;13.10;99.90;;;;;;4975196;28;20414;-53
2021/05/20 07:32:20;;;;;;;4.50;1.87;;;13.30;99.90;;;;;;4975336;28;20757;-54
2021/05/20 07:34:46;;;;;;;4.90;1.95;;;13.40;99.90;;;;;;4958525;28;20526;-54
2021/05/20 07:37:12;;;;;;;5.75;2.08;;;13.20;99.90;;;;;;4976647;28;20388;-53
2021/05/20 07:39:38;;;;;;;6.00;2.30;;;13.50;99.90;;;;;;4968868;28;20400;-59
2021/05/20 07:42:04;;;;;;;5.43;2.35;;;13.70;99.90;;;;;;4970446;28;20392;-53
2021/05/20 07:44:30;;;;;;;4.78;2.40;;;13.90;99.90;;;;;;4958296;28;20490;-54
2021/05/20 07:46:57;;;;;;;4.70;2.17;;;14.50;99.90;;;;;;4964280;28;20473;-54
2021/05/20 07:49:26;;;;;;;5.80;2.10;;;14.30;99.90;;;;;;4966618;28;20388;-53
2021/05/20 07:51:52;;;;;;;4.70;2.05;;;14.30;99.90;;;;;;4953394;29;20421;-54
2021/05/20 07:54:19;;;;;;;6.10;2.00;;;14.80;99.90;;;;;;4954003;29;20397;-54
2021/05/20 07:56:44;;;;;;;5.35;1.90;;;14.80;99.90;;;;;;4945703;29;20461;-54
2021/05/20 07:59:11;;;;;;;4.50;2.13;;;14.90;99.90;;;;;;4954176;29;20405;-53
2021/05/20 08:01:40;;;;;;;5.15;1.70;;;15.20;99.90;;;;;;4953555;28;20886;-53
2021/05/20 08:04:12;;;;;;;4.50;1.60;;;15.30;99.90;;;;;;4953157;29;20439;-53
2021/05/20 08:09:32;;;;;;;4.60;2.40;;;14.40;99.90;;;;;;4953637;29;20442;-60
2021/05/20 08:11:58;;;;;;;4.90;1.80;;;14.20;99.90;;;;;;4953209;29;20420;-54
2021/05/20 08:14:24;;;;;;;4.85;1.67;;;13.90;99.90;;;;;;4953450;29;20403;-53
2021/05/20 08:16:49;;;;;;;4.23;1.67;;;13.90;99.90;;;;;;4952690;29;20386;-56
2021/05/20 08:19:15;;;;;;;4.25;1.58;;;14.40;99.90;;;;;;4953071;29;20481;-53
2021/05/20 08:21:42;;;;;;;4.53;1.53;;;14.60;99.90;;;;;;4953543;29;20400;-64
2021/05/20 08:24:08;;;;;;;4.03;1.50;;;14.70;99.90;;;;;;4953294;29;20390;-54
2021/05/20 08:26:34;;;;;;;4.20;1.70;;;15.10;99.90;;;;;;4965219;28;20396;-54
2021/05/20 08:29:00;;;;;;;5.40;1.50;;;15.40;99.90;;;;;;4971704;28;20769;-54
2021/05/20 08:31:26;;;;;;;4.20;1.40;;;17.20;99.90;;;;;;4972812;28;20420;-54
2021/05/20 08:33:52;;;;;;;4.20;1.50;;;18.80;99.90;;;;;;4971907;28;20392;-54
2021/05/20 08:36:18;;;;;;;4.10;1.60;;;18.80;99.90;;;;;;4972309;28;20754;-54
2021/05/20 08:38:44;;;;;;;4.00;1.20;;;18.90;99.90;;;;;;4972049;28;20396;-63
2021/05/20 08:41:09;;;;;;;5.40;1.40;;;18.40;99.90;;;;;;4955226;28;20392;-54
2021/05/20 08:43:37;;;;;;;4.38;1.30;;;17.90;99.90;;;;;;4972156;28;20467;-55
2021/05/20 08:46:02;;;;;;;3.83;1.40;;;17.90;99.90;;;;;;4971501;28;20431;-54
2021/05/20 08:48:28;;;;;;;3.60;1.10;;;18.60;99.90;;;;;;4961701;28;20416;-54
2021/05/20 08:50:54;;;;;;;5.17;1.33;;;18.90;99.90;;;;;;4960338;28;20422;-57
2021/05/20 08:53:19;;;;;;;4.18;1.30;;;18.60;99.90;;;;;;4960453;28;20433;-54
2021/05/20 08:55:45;;;;;;;4.38;1.30;;;17.80;99.90;;;;;;4960406;28;20425;-57
2021/05/20 08:58:11;;;;;;;5.40;1.90;;;17.20;99.90;;;;;;4955159;28;20408;-54
2021/05/20 09:00:39;;;;;;;4.90;1.50;;;16.50;99.90;;;;;;4961153;28;20394;-60
2021/05/20 09:03:13;;;;;;;4.18;1.50;;;16.10;99.90;;;;;;4950911;28;21250;-54
2021/05/20 09:05:40;;;;;;;5.22;1.60;;;16.80;99.90;;;;;;4952674;29;20418;-55
2021/05/20 09:08:10;;;;;;;4.65;1.70;;;18.50;99.90;;;;;;4952353;29;20386;-54
2021/05/20 09:10:37;;;;;;;3.60;1.00;;;19.90;99.90;;;;;;4952689;29;20420;-56
2021/05/20 09:13:08;;;;;;;3.88;1.30;;;19.30;98.40;;;;;;4956438;28;20930;-54
2021/05/20 09:15:34;;;;;;;3.95;1.35;;;18.20;99.90;;;;;;4959899;28;20451;-54
2021/05/20 09:18:12;;;;;;;4.03;1.50;;;17.40;99.90;;;;;;4961587;28;20403;-55
2021/05/20 09:20:43;;;;;;;4.60;1.43;;;17.10;99.90;;;;;;4960021;28;20440;-54
2021/05/20 09:23:14;;;;;;;5.10;1.70;;;16.70;99.90;;;;;;4961138;28;20386;-54
2021/05/20 09:25:42;;;;;;;4.65;1.60;;;17.00;99.90;;;;;;4960936;28;20406;-54
2021/05/20 09:28:09;;;;;;;4.50;1.77;;;17.30;99.90;;;;;;4958756;28;20441;-55
2021/05/20 09:30:38;;;;;;;4.50;1.90;;;16.80;99.90;;;;;;4956333;28;20410;-58
2021/05/20 09:33:07;;;;;;;4.50;1.60;;;16.40;99.90;;;;;;4956905;28;20402;-54
2021/05/20 09:35:43;;;;;;;4.28;1.50;;;15.60;99.90;;;;;;4956557;28;20393;-57
2021/05/20 09:38:14;;;;;;;4.00;1.10;;;15.70;99.90;;;;;;4958695;28;20409;-54
2021/05/20 09:40:45;;;;;;;4.60;1.30;;;15.80;99.90;;;;;;4965218;28;20405;-55
2021/05/20 09:43:15;;;;;;;3.80;1.20;;;15.90;99.90;;;;;;4970569;28;20399;-55
2021/05/20 09:45:41;;;;;;;3.92;1.10;;;16.40;99.90;;;;;;4956479;28;20399;-64
2021/05/20 09:48:08;;;;;;;4.90;1.20;;;17.00;99.90;;;;;;4955921;28;20384;-54
2021/05/20 09:50:41;;;;;;;4.20;1.30;;;17.80;99.90;;;;;;4959379;28;20425;-54
2021/05/20 09:53:09;;;;;;;4.10;1.40;;;18.60;99.90;;;;;;4954030;28;20394;-54
2021/05/20 09:55:35;;;;;;;5.30;1.60;;;19.50;99.30;;;;;;4958759;28;20870;-55
2021/05/20 09:58:09;;;;;;;4.82;1.70;;;21.00;98.70;;;;;;4954632;28;20416;-54
2021/05/20 10:00:36;;;;;;;4.78;1.67;;;21.80;94.70;;;;;;4962048;28;20467;-54
2021/05/20 10:03:07;;;;;;;6.68;1.88;;;21.10;94.90;;;;;;4958675;28;20420;-54
2021/05/20 10:05:35;;;;;;;4.70;1.50;;;21.10;95.40;;;;;;4959613;28;20412;-55
2021/05/20 10:08:03;;;;;;;4.80;1.33;;;20.40;94.10;;;;;;4954591;28;20413;-54
2021/05/20 10:10:32;;;;;;;4.38;1.20;;;18.90;95.50;;;;;;4962095;28;20394;-54
2021/05/20 10:13:01;;;;;;;4.60;1.10;;;17.30;98.60;;;;;;4941990;28;20404;-53
2021/05/20 10:15:28;;;;;;;5.70;1.20;;;16.90;99.90;;;;;;4955928;28;20400;-55
2021/05/20 10:17:54;;;;;;;5.30;1.60;;;16.60;99.90;;;;;;4953329;28;20382;-53
2021/05/20 10:20:22;;;;;;;4.20;1.10;;;16.10;99.90;;;;;;4953157;28;20482;-54
2021/05/20 10:22:50;;;;;;;4.30;1.38;;;16.10;99.90;;;;;;4941592;28;20409;-54
2021/05/20 10:25:21;;;;;;;4.00;1.10;;;16.60;99.90;;;;;;4955665;28;20398;-54
2021/05/20 10:27:46;;;;;;;3.90;1.00;;;18.10;99.90;;;;;;4954815;28;20429;-65
2021/05/20 10:30:15;;;;;;;4.80;1.10;;;18.20;98.30;;;;;;4955497;28;20420;-60
2021/05/20 10:32:43;;;;;;;3.83;1.10;;;18.00;97.70;;;;;;4939205;28;20420;-54
2021/05/20 10:35:11;;;;;;;3.90;1.20;;;18.00;98.70;;;;;;4956867;28;20384;-57
2021/05/20 10:37:38;;;;;;;4.75;1.17;;;18.50;98.50;;;;;;4955142;28;20417;-54
2021/05/20 10:40:26;;;;;;;3.90;1.30;;;18.80;97.40;;;;;;4954379;28;20393;-56
2021/05/20 10:43:13;;;;;;;5.80;1.20;;;19.10;94.60;;;;;;4957919;28;20403;-54
2021/05/20 10:46:00;;;;;;;4.30;1.53;;;19.10;96.20;;;;;;4965769;28;20479;-54
2021/05/20 10:48:27;;;;;;;4.47;1.60;;;19.10;95.30;;;;;;4960933;28;20416;-55
2021/05/20 10:51:02;;;;;;;3.70;1.10;;;18.90;95.70;;;;;;4961844;28;20423;-56
2021/05/20 10:53:51;;;;;;;3.73;1.20;;;18.80;95.10;;;;;;4953676;28;20414;-55
2021/05/20 10:56:22;;;;;;;4.40;1.20;;;19.30;94.80;;;;;;4954813;28;20413;-54
2021/05/20 10:58:49;;;;;;;3.97;1.23;;;19.50;93.60;;;;;;4955743;28;20426;-64
2021/05/20 11:01:21;;;;;;;3.60;1.00;;;18.90;93.50;;;;;;4960148;28;20431;-54
2021/05/20 11:03:46;;;;;;;3.92;1.20;;;18.40;94.30;;;;;;4960855;28;20530;-64
2021/05/20 11:06:13;;;;;;;5.93;1.30;;;18.30;93.50;;;;;;4959995;28;20479;-54
2021/05/20 11:08:39;;;;;;;3.70;1.10;;;18.50;95.00;;;;;;4956317;28;20871;-55
2021/05/20 11:11:08;;;;;;;3.40;0.80;;;19.00;92.90;;;;;;4957546;28;20419;-54
2021/05/20 11:13:38;;;;;;;4.40;1.40;;;19.30;92.60;;;;;;4957541;28;20390;-54
2021/05/20 11:16:18;;;;;;;3.90;1.15;;;19.10;92.60;;;;;;4951150;28;20394;-54
2021/05/20 11:18:48;;;;;;;4.43;1.37;;;18.90;93.10;;;;;;4949478;29;20398;-66
2021/05/20 11:21:14;;;;;;;4.13;1.10;;;19.10;93.70;;;;;;4949862;29;20397;-53
2021/05/20 11:23:40;;;;;;;4.80;1.00;;;19.40;92.70;;;;;;4950988;29;20390;-54
2021/05/20 11:26:17;;;;;;;4.10;1.05;;;19.00;90.00;;;;;;4952367;28;20518;-54
2021/05/20 11:29:01;;;;;;;3.80;0.90;;;19.30;90.20;;;;;;4953833;29;20488;-56
2021/05/20 11:31:27;;;;;;;4.68;1.08;;;19.80;90.20;;;;;;4937502;29;20818;-54
2021/05/20 11:34:04;;;;;;;4.75;1.00;;;20.40;88.30;;;;;;4954006;29;20401;-54
2021/05/20 11:36:41;;;;;;;5.88;1.50;;;20.20;84.10;;;;;;4954609;29;20386;-56
2021/05/20 11:39:11;;;;;;;4.40;1.50;;;19.70;92.10;;;;;;4953628;29;20386;-55
2021/05/20 11:41:40;;;;;;;3.70;1.00;;;19.10;90.60;;;;;;4954392;29;20393;-54
2021/05/20 11:44:14;;;;;;;5.50;1.30;;;19.10;91.90;;;;;;4954175;29;20546;-54
2021/05/20 11:46:42;;;;;;;3.78;1.10;;;19.50;90.50;;;;;;4954330;29;20921;-54
2021/05/20 11:49:18;;;;;;;4.65;1.23;;;19.70;88.40;;;;;;4962892;28;20435;-54
2021/05/20 11:51:52;;;;;;;4.60;1.13;;;19.40;89.30;;;;;;4963757;28;20907;-54
2021/05/20 11:54:20;;;;;;;4.38;1.30;;;19.70;89.10;;;;;;4953943;29;20390;-54
2021/05/20 11:56:50;;;;;;;6.63;1.50;;;19.70;88.00;;;;;;4953996;29;20472;-65
2021/05/20 11:59:17;;;;;;;3.92;1.20;;;19.40;87.00;;;;;;4953735;29;20424;-54
2021/05/20 12:01:45;;;;;;;4.93;1.17;;;19.00;88.60;;;;;;4963988;28;20424;-54
2021/05/20 12:04:11;;;;;;;3.80;1.30;;;18.50;91.50;;;;;;4972732;28;20399;-54
2021/05/20 12:06:37;;;;;;;3.83;1.30;;;18.20;92.60;;;;;;4973275;28;20392;-53
2021/05/20 12:09:07;;;;;;;3.80;1.20;;;18.10;93.70;;;;;;4972499;28;20381;-57
2021/05/20 12:11:33;;;;;;;4.10;0.98;;;18.20;92.90;;;;;;4973295;28;20423;-54
2021/05/20 12:13:59;;;;;;;3.40;0.90;;;18.60;91.70;;;;;;4971923;28;20410;-54
2021/05/20 12:16:33;;;;;;;3.97;1.02;;;19.20;90.50;;;;;;4968617;28;20892;-55
2021/05/20 12:18:59;;;;;;;3.70;1.10;;;18.60;89.20;;;;;;4969168;28;20851;-55
2021/05/20 12:21:25;;;;;;;4.63;1.10;;;18.30;90.20;;;;;;4968176;28;20491;-52
2021/05/20 12:23:58;;;;;;;5.28;1.10;;;18.20;90.40;;;;;;4965702;28;20398;-54
2021/05/20 12:26:29;;;;;;;3.90;1.30;;;18.40;91.00;;;;;;4946201;28;20974;-53
2021/05/20 12:28:55;;;;;;;4.10;1.13;;;18.10;91.10;;;;;;4962799;28;20421;-53
2021/05/20 12:31:21;;;;;;;4.40;1.20;;;17.90;91.10;;;;;;4961794;28;20987;-55
2021/05/20 12:33:48;;;;;;;4.05;1.20;;;17.80;92.00;;;;;;4960624;28;20766;-66
2021/05/20 12:36:35;;;;;;;4.90;1.30;;;18.00;91.70;;;;;;4958454;28;20394;-53
2021/05/20 12:39:02;;;;;;;3.83;1.13;;;18.00;92.60;;;;;;4945005;28;20778;-54
2021/05/20 12:41:36;;;;;;;3.90;1.13;;;18.10;92.40;;;;;;4944179;28;20509;-54
2021/05/20 12:44:15;;;;;;;3.80;1.10;;;17.90;91.90;;;;;;4935243;29;20390;-53
2021/05/20 12:46:42;;;;;;;5.00;1.30;;;17.70;92.30;;;;;;4951185;29;20410;-53
2021/05/20 12:49:08;;;;;;;3.87;1.23;;;17.30;93.70;;;;;;4951357;28;20481;-53
2021/05/20 12:51:34;;;;;;;3.90;1.13;;;17.20;95.10;;;;;;4954400;28;20504;-53
2021/05/20 12:54:06;;;;;;;4.30;1.20;;;17.10;97.70;;;;;;4935208;29;20402;-54
2021/05/20 12:56:39;;;;;;;3.60;1.00;;;17.30;98.10;;;;;;4953350;29;20386;-55
2021/05/20 12:59:14;;;;;;;3.95;1.20;;;17.20;99.90;;;;;;4952522;29;20427;-53